Seat Pleasant, Maryland
Current Conditions -  °F | °C
As of 10:55 AM on Saturday 20 Dec 2014 (Local Time) from KADW Reporting Station
Few Clouds Few Clouds  
Wind Chill: 30°   Ceiling: Unl
Heat Index: 34°   Visibility: 7mi
Dew Point: 22°   Wind: 5mph
Humidity: 61%   Direction: 360°N
Pressure: 30.31"   Gusts: NA
Location:  38.8854°N, 76.8965°W
Report Text: KADW 201555Z 36004KT 7SM FEW150 01/M06 A3031 RMK AO2A SLP269 T00101057
Loading
Personal Weather Stations






























Interactive Weather Map New forecast layout! Learn more

10-Day Weather Forecast

Advertisements
Track Severe Weather on mobile